createdAt,value
2023-02-07T00:01:21.776Z,9.53
2023-02-07T00:03:49.062Z,18.25
2023-02-07T00:06:22.399Z,9.90
2023-02-07T00:08:49.909Z,8.52
2023-02-07T00:11:20.208Z,8.75
2023-02-07T00:13:51.352Z,11.77
2023-02-07T00:16:19.289Z,13.63
2023-02-07T00:18:46.670Z,6.50
2023-02-07T00:21:18.414Z,6.93
2023-02-07T00:23:46.388Z,7.22
2023-02-07T00:26:14.661Z,5.90
2023-02-07T00:28:41.545Z,8.60
2023-02-07T00:31:21.027Z,11.65
2023-02-07T00:33:49.328Z,10.40
2023-02-07T00:36:21.937Z,9.77
2023-02-07T00:38:49.077Z,8.57
2023-02-07T00:41:18.571Z,6.95
2023-02-07T00:43:47.097Z,7.07
2023-02-07T00:46:14.120Z,7.38
2023-02-07T00:48:40.693Z,7.32
2023-02-07T00:51:07.723Z,7.70
2023-02-07T00:53:34.624Z,8.73
2023-02-07T00:56:01.138Z,8.93
2023-02-07T00:58:27.680Z,9.25
2023-02-07T01:00:54.239Z,10.38
2023-02-07T01:03:21.028Z,6.87
2023-02-07T01:05:48.194Z,11.57
2023-02-07T01:08:15.602Z,7.75
2023-02-07T01:10:44.260Z,7.45
2023-02-07T01:13:11.819Z,6.57
2023-02-07T01:15:40.554Z,5.87
2023-02-07T01:18:08.563Z,9.95
2023-02-07T01:20:35.063Z,6.72
2023-02-07T01:23:01.962Z,7.53
2023-02-07T01:25:29.069Z,8.68
2023-02-07T01:27:56.104Z,6.70
2023-02-07T01:30:22.753Z,9.65
2023-02-07T01:32:49.817Z,10.05
2023-02-07T01:35:16.776Z,10.07
2023-02-07T01:37:43.351Z,4.72
2023-02-07T01:40:11.811Z,7.60
2023-02-07T01:42:38.687Z,9.43
2023-02-07T01:45:29.706Z,10.55
2023-02-07T01:48:00.891Z,9.75
2023-02-07T01:50:28.017Z,7.32
2023-02-07T01:52:55.614Z,12.13
2023-02-07T01:55:27.449Z,6.90
2023-02-07T01:57:54.192Z,7.63
2023-02-07T02:00:21.986Z,7.78
2023-02-07T02:02:48.622Z,8.48
2023-02-07T02:05:16.814Z,7.53
2023-02-07T02:07:43.473Z,8.02
2023-02-07T02:10:18.507Z,7.32
2023-02-07T02:13:07.478Z,9.60
2023-02-07T02:15:44.708Z,6.13
2023-02-07T02:18:27.374Z,8.73
2023-02-07T02:21:15.613Z,10.95
2023-02-07T02:24:05.996Z,8.20
2023-02-07T02:26:39.311Z,12.00
2023-02-07T02:29:33.311Z,13.13
2023-02-07T02:32:17.787Z,12.00
2023-02-07T02:34:58.487Z,13.25
2023-02-07T02:37:59.244Z,10.30
2023-02-07T02:40:34.681Z,13.88
2023-02-07T02:43:09.442Z,9.80
2023-02-07T02:45:42.419Z,7.67
2023-02-07T02:48:11.711Z,14.27
2023-02-07T02:50:39.348Z,7.25
2023-02-07T02:53:06.110Z,11.13
2023-02-07T02:55:48.301Z,13.15
2023-02-07T02:58:40.342Z,7.57
2023-02-07T03:01:23.688Z,18.10
2023-02-07T03:04:13.502Z,13.95
2023-02-07T03:07:06.745Z,7.82
2023-02-07T03:09:48.835Z,5.97
2023-02-07T03:12:55.636Z,11.07
2023-02-07T03:15:31.104Z,15.50
2023-02-07T03:18:05.378Z,8.95
2023-02-07T03:20:46.223Z,11.27
2023-02-07T03:23:16.059Z,6.35
2023-02-07T03:25:44.516Z,9.57
2023-02-07T03:28:14.504Z,11.52
2023-02-07T03:30:44.063Z,7.70
2023-02-07T03:33:14.079Z,10.07
2023-02-07T03:35:52.499Z,6.10
2023-02-07T03:38:19.711Z,6.33
2023-02-07T03:40:49.329Z,6.97
2023-02-07T03:43:24.788Z,13.55
2023-02-07T03:45:51.504Z,12.98
2023-02-07T03:48:18.150Z,7.30
2023-02-07T03:50:45.136Z,10.40
2023-02-07T03:53:11.649Z,12.60
2023-02-07T03:55:38.459Z,14.38
2023-02-07T03:58:07.357Z,7.05
2023-02-07T04:00:34.366Z,9.18
2023-02-07T04:03:01.050Z,12.87
2023-02-07T04:05:27.586Z,9.48
2023-02-07T04:07:54.027Z,9.95
2023-02-07T04:10:20.584Z,15.45
2023-02-07T04:12:47.032Z,15.85
2023-02-07T04:15:13.700Z,12.67
2023-02-07T04:17:40.317Z,8.00
2023-02-07T04:20:07.967Z,16.58
2023-02-07T04:22:34.634Z,12.80
2023-02-07T04:25:01.432Z,18.90
2023-02-07T04:27:28.082Z,15.30
2023-02-07T04:29:54.688Z,16.23
2023-02-07T04:32:21.176Z,13.23
2023-02-07T04:34:47.742Z,15.55
2023-02-07T04:37:14.330Z,13.75
2023-02-07T04:39:40.873Z,16.07
2023-02-07T04:42:07.640Z,14.85
2023-02-07T04:44:34.827Z,22.70
2023-02-07T04:47:01.304Z,10.25
2023-02-07T04:49:28.020Z,16.48
2023-02-07T04:51:54.520Z,15.10
2023-02-07T04:54:21.163Z,18.38
2023-02-07T04:56:47.666Z,12.13
2023-02-07T04:59:14.165Z,12.40
2023-02-07T05:01:40.662Z,13.70
2023-02-07T05:04:07.228Z,14.43
2023-02-07T05:06:33.711Z,11.98
2023-02-07T05:09:00.300Z,15.77
2023-02-07T05:11:26.934Z,13.48
2023-02-07T05:13:53.433Z,13.77
2023-02-07T05:16:19.972Z,11.60
2023-02-07T05:18:46.531Z,16.13
2023-02-07T05:21:13.056Z,14.07
2023-02-07T05:23:39.546Z,12.93
2023-02-07T05:26:06.008Z,13.80
2023-02-07T05:28:32.607Z,11.00
2023-02-07T05:30:59.297Z,15.32
2023-02-07T05:33:25.896Z,12.70
2023-02-07T05:35:52.363Z,10.50
2023-02-07T05:38:20.252Z,9.07
2023-02-07T05:40:48.146Z,10.43
2023-02-07T05:43:14.850Z,12.40
2023-02-07T05:45:41.711Z,13.48
2023-02-07T05:48:08.506Z,16.77
2023-02-07T05:50:35.084Z,9.63
2023-02-07T05:53:02.928Z,13.93
2023-02-07T05:55:29.535Z,11.63
2023-02-07T05:57:56.076Z,13.90
2023-02-07T06:00:22.724Z,11.88
2023-02-07T06:02:49.307Z,17.15
2023-02-07T06:05:17.845Z,12.43
2023-02-07T06:07:44.389Z,12.13
2023-02-07T06:10:11.490Z,13.05
2023-02-07T06:12:38.271Z,9.38
2023-02-07T06:15:05.405Z,14.13
2023-02-07T06:17:32.283Z,8.83
2023-02-07T06:19:58.847Z,13.10
2023-02-07T06:22:25.374Z,12.57
2023-02-07T06:24:52.214Z,12.65
2023-02-07T06:27:19.043Z,15.65
2023-02-07T06:29:45.656Z,10.60
2023-02-07T06:32:12.099Z,9.40
2023-02-07T06:34:38.608Z,9.13
2023-02-07T06:37:05.120Z,7.57
2023-02-07T06:39:31.609Z,6.82
2023-02-07T06:41:58.150Z,10.53
2023-02-07T06:44:24.686Z,14.73
2023-02-07T06:46:51.173Z,6.97
2023-02-07T06:49:17.664Z,10.65
2023-02-07T06:51:44.287Z,8.70
2023-02-07T06:54:10.940Z,8.97
2023-02-07T06:56:37.985Z,7.55
2023-02-07T06:59:05.098Z,7.53
2023-02-07T07:01:31.968Z,9.23
2023-02-07T07:03:58.694Z,11.00
2023-02-07T07:06:25.256Z,11.47
2023-02-07T07:08:51.884Z,8.68
2023-02-07T07:11:19.014Z,6.70
2023-02-07T07:13:45.711Z,10.85
2023-02-07T07:16:12.408Z,13.27
2023-02-07T07:18:39.275Z,8.93
2023-02-07T07:21:06.636Z,11.10
2023-02-07T07:23:33.355Z,8.32
2023-02-07T07:26:00.001Z,10.73
2023-02-07T07:28:26.533Z,9.48
2023-02-07T07:30:53.240Z,7.00
2023-02-07T07:33:19.946Z,8.68
2023-02-07T07:35:46.472Z,11.57
2023-02-07T07:38:13.127Z,14.15
2023-02-07T07:40:39.902Z,8.38
2023-02-07T07:43:06.634Z,6.30
2023-02-07T07:45:33.126Z,9.20
2023-02-07T07:47:59.717Z,8.57
2023-02-07T07:50:26.321Z,10.45
2023-02-07T07:52:52.883Z,8.68
2023-02-07T07:55:19.368Z,8.53
2023-02-07T07:57:45.847Z,8.52
2023-02-07T08:00:13.154Z,11.15
2023-02-07T08:02:40.272Z,8.52
2023-02-07T08:05:06.955Z,7.13
2023-02-07T08:07:33.753Z,9.57
2023-02-07T08:10:00.391Z,10.55
2023-02-07T08:12:26.953Z,10.90
2023-02-07T08:14:53.455Z,11.60
2023-02-07T08:17:20.025Z,10.38
2023-02-07T08:19:46.562Z,9.57
2023-02-07T08:22:14.693Z,10.82
2023-02-07T08:24:41.953Z,9.30
2023-02-07T08:27:08.687Z,11.88
2023-02-07T08:29:35.170Z,9.32
2023-02-07T08:32:01.923Z,10.53
2023-02-07T08:34:29.014Z,12.18
2023-02-07T08:36:55.624Z,20.10
2023-02-07T08:39:22.255Z,17.00
2023-02-07T08:41:48.721Z,19.60
2023-02-07T08:44:15.547Z,16.73
2023-02-07T08:46:42.681Z,15.88
2023-02-07T08:49:09.193Z,13.80
2023-02-07T08:51:35.724Z,15.27
2023-02-07T08:54:02.234Z,20.15
2023-02-07T08:56:28.706Z,18.33
2023-02-07T08:58:55.238Z,15.88
2023-02-07T09:01:21.876Z,19.10
2023-02-07T09:03:48.483Z,18.85
2023-02-07T09:06:14.964Z,17.40
2023-02-07T09:08:41.797Z,19.53
2023-02-07T09:11:09.586Z,17.02
2023-02-07T09:13:36.909Z,18.30
2023-02-07T09:16:03.468Z,22.38
2023-02-07T09:18:31.077Z,20.33
2023-02-07T09:20:57.760Z,16.77
2023-02-07T09:23:24.386Z,20.17
2023-02-07T09:25:52.751Z,20.00
2023-02-07T09:28:20.348Z,18.02
2023-02-07T09:30:47.769Z,15.23
2023-02-07T09:33:15.702Z,18.20
2023-02-07T09:35:46.377Z,21.25
2023-02-07T09:38:22.214Z,17.25
2023-02-07T09:40:51.250Z,16.05
2023-02-07T09:43:44.732Z,17.65
2023-02-07T09:46:22.478Z,18.07
2023-02-07T09:48:56.042Z,13.52
2023-02-07T09:51:24.217Z,17.13
2023-02-07T09:53:54.914Z,19.80
2023-02-07T09:56:25.478Z,17.40
2023-02-07T09:59:02.452Z,10.23
2023-02-07T10:01:41.264Z,12.80
2023-02-07T10:04:21.723Z,10.48
2023-02-07T10:06:52.686Z,14.60
2023-02-07T10:09:23.920Z,11.43
2023-02-07T10:11:59.669Z,15.40
2023-02-07T10:14:44.436Z,14.23
2023-02-07T10:17:35.788Z,13.10
2023-02-07T10:20:40.127Z,13.75
2023-02-07T10:23:15.872Z,9.88
2023-02-07T10:25:51.825Z,10.63
2023-02-07T10:28:39.974Z,11.32
2023-02-07T10:31:16.434Z,10.18
2023-02-07T10:33:58.309Z,10.70
2023-02-07T10:36:29.669Z,12.65
2023-02-07T10:39:09.375Z,12.67
2023-02-07T10:41:39.528Z,9.88
2023-02-07T10:44:09.982Z,9.88
2023-02-07T10:46:38.565Z,8.98
2023-02-07T10:49:05.175Z,9.30
2023-02-07T10:51:34.712Z,9.90
2023-02-07T10:54:13.689Z,10.80
2023-02-07T10:56:43.479Z,11.02
2023-02-07T10:59:31.357Z,8.63
2023-02-07T11:01:58.042Z,9.32
2023-02-07T11:04:44.924Z,6.03
2023-02-07T11:07:15.607Z,5.80
2023-02-07T11:09:42.592Z,3.80
2023-02-07T11:12:20.399Z,5.20
2023-02-07T11:15:03.534Z,4.75
2023-02-07T11:17:30.300Z,4.73
2023-02-07T11:20:02.492Z,3.75
2023-02-07T11:22:29.312Z,2.80
2023-02-07T11:25:03.740Z,3.95
2023-02-07T11:27:37.755Z,3.78
2023-02-07T11:30:09.052Z,3.23
2023-02-07T11:32:38.475Z,3.40
2023-02-07T11:35:09.539Z,3.38
2023-02-07T11:37:38.222Z,3.42
2023-02-07T11:40:21.471Z,2.85
2023-02-07T11:42:49.404Z,2.70
2023-02-07T11:45:21.454Z,4.53
2023-02-07T11:47:52.710Z,5.45
2023-02-07T11:50:23.856Z,3.17
2023-02-07T11:52:57.149Z,4.30
2023-02-07T11:55:30.261Z,3.93
2023-02-07T11:57:57.957Z,3.97
2023-02-07T12:00:28.488Z,6.03
2023-02-07T12:03:22.577Z,3.17
2023-02-07T12:05:53.442Z,2.58
2023-02-07T12:08:24.294Z,3.77
2023-02-07T12:10:55.195Z,6.22
2023-02-07T12:13:35.354Z,6.60
2023-02-07T12:16:17.524Z,7.90
2023-02-07T12:19:07.297Z,3.50
2023-02-07T12:21:44.770Z,4.07
2023-02-07T12:24:16.914Z,4.13
2023-02-07T12:26:50.402Z,4.45
2023-02-07T12:29:36.555Z,4.25
2023-02-07T12:32:13.713Z,4.68
2023-02-07T12:35:03.704Z,5.00
2023-02-07T12:37:49.407Z,5.25
2023-02-07T12:40:41.839Z,5.75
2023-02-07T12:43:38.133Z,3.35
2023-02-07T12:46:07.469Z,4.47
2023-02-07T12:49:22.129Z,4.47
2023-02-07T12:52:32.351Z,3.50
2023-02-07T12:55:12.634Z,4.25
2023-02-07T12:58:16.801Z,3.17
2023-02-07T13:01:08.240Z,5.68
2023-02-07T13:03:53.337Z,3.73
2023-02-07T13:06:37.406Z,5.50
2023-02-07T13:09:11.799Z,4.00
2023-02-07T13:11:43.349Z,4.40
2023-02-07T13:14:24.849Z,3.85
2023-02-07T13:17:13.080Z,3.83
2023-02-07T13:20:00.781Z,4.07
2023-02-07T13:22:29.999Z,4.10
2023-02-07T13:24:57.885Z,3.20
2023-02-07T13:27:27.691Z,3.50
2023-02-07T13:29:54.825Z,3.13
2023-02-07T13:32:24.486Z,4.78
2023-02-07T13:35:11.379Z,3.53
2023-02-07T13:37:51.320Z,3.58
2023-02-07T13:40:37.660Z,3.70
2023-02-07T13:43:26.733Z,3.00
2023-02-07T13:46:20.354Z,3.65
2023-02-07T13:48:58.776Z,4.68
2023-02-07T13:51:46.505Z,4.70
2023-02-07T13:54:47.064Z,4.20
2023-02-07T13:57:58.548Z,4.43
2023-02-07T14:00:36.324Z,4.75
2023-02-07T14:03:06.432Z,3.92
2023-02-07T14:05:42.632Z,5.55
2023-02-07T14:08:18.140Z,7.22
2023-02-07T14:10:52.723Z,7.17
2023-02-07T14:13:29.016Z,4.85
2023-02-07T14:15:55.575Z,6.60
2023-02-07T14:18:34.743Z,6.05
2023-02-07T14:21:26.159Z,5.53
2023-02-07T14:24:31.969Z,9.83
2023-02-07T14:27:01.149Z,7.10
2023-02-07T14:29:30.938Z,5.30
2023-02-07T14:32:22.336Z,6.13
2023-02-07T14:35:06.581Z,6.80
2023-02-07T14:38:03.053Z,6.00
2023-02-07T14:41:08.491Z,6.68
2023-02-07T14:44:07.445Z,5.65
2023-02-07T14:46:38.435Z,4.93
2023-02-07T14:49:19.949Z,5.63
2023-02-07T14:52:01.218Z,4.47
2023-02-07T14:54:33.649Z,4.93
2023-02-07T14:57:21.476Z,5.00
2023-02-07T15:00:13.468Z,4.18
2023-02-07T15:02:41.110Z,3.72
2023-02-07T15:05:13.651Z,3.57
2023-02-07T15:07:43.488Z,4.40
2023-02-07T15:10:37.910Z,5.43
2023-02-07T15:13:15.160Z,3.75
2023-02-07T15:15:52.275Z,4.72
2023-02-07T15:18:22.202Z,4.57
2023-02-07T15:20:53.132Z,4.70
2023-02-07T15:23:20.748Z,4.40
2023-02-07T15:25:47.592Z,4.82
2023-02-07T15:28:27.557Z,5.43
2023-02-07T15:31:15.111Z,4.63
2023-02-07T15:33:49.746Z,4.38
2023-02-07T15:36:40.531Z,5.85
2023-02-07T15:39:15.329Z,4.82
2023-02-07T15:41:44.174Z,4.00
2023-02-07T15:44:30.266Z,4.17
2023-02-07T15:46:59.641Z,3.78
2023-02-07T15:49:41.123Z,3.83
2023-02-07T15:52:26.226Z,7.47
2023-02-07T15:54:54.392Z,4.35
2023-02-07T15:57:29.060Z,5.43
2023-02-07T16:00:00.737Z,4.28
2023-02-07T16:02:33.006Z,5.30
2023-02-07T16:04:59.716Z,5.00
2023-02-07T16:07:27.212Z,8.55
2023-02-07T16:09:54.122Z,5.43
2023-02-07T16:12:42.364Z,5.18
2023-02-07T16:15:57.941Z,4.82
2023-02-07T16:18:48.170Z,6.07
2023-02-07T16:21:20.780Z,6.47
2023-02-07T16:23:49.732Z,4.37
2023-02-07T16:26:19.977Z,6.05
2023-02-07T16:28:47.227Z,6.22
2023-02-07T16:31:13.949Z,4.82
2023-02-07T16:33:40.567Z,5.35
2023-02-07T16:36:13.625Z,4.63
2023-02-07T16:38:40.113Z,4.43
2023-02-07T16:41:06.796Z,4.30
2023-02-07T16:43:39.834Z,5.18
2023-02-07T16:46:06.694Z,4.72
2023-02-07T16:48:33.259Z,5.97
2023-02-07T16:51:01.382Z,6.10
2023-02-07T16:53:28.355Z,6.57
2023-02-07T16:55:56.943Z,6.43
2023-02-07T16:58:30.104Z,7.80
2023-02-07T17:00:56.939Z,7.20
2023-02-07T17:03:23.590Z,9.18
2023-02-07T17:05:50.727Z,8.73
2023-02-07T17:08:22.734Z,8.52
2023-02-07T17:11:00.222Z,9.90
2023-02-07T17:13:26.987Z,6.90
2023-02-07T17:15:53.705Z,7.43
2023-02-07T17:18:23.155Z,6.32
2023-02-07T17:20:49.902Z,19.77
2023-02-07T17:23:16.972Z,21.10
2023-02-07T17:25:44.287Z,16.70
2023-02-07T17:28:14.519Z,22.05
2023-02-07T17:30:42.140Z,13.57
2023-02-07T17:33:10.416Z,11.02
2023-02-07T17:35:38.032Z,7.93
2023-02-07T17:38:04.648Z,7.57
2023-02-07T17:40:34.121Z,6.30
2023-02-07T17:43:01.082Z,7.00
2023-02-07T17:45:28.813Z,8.13
2023-02-07T17:47:58.650Z,6.00
2023-02-07T17:50:29.490Z,5.00
2023-02-07T17:53:01.540Z,9.25
2023-02-07T17:55:29.954Z,5.88
2023-02-07T17:57:57.053Z,4.60
2023-02-07T18:00:34.002Z,5.38
2023-02-07T18:03:00.687Z,7.17
2023-02-07T18:05:27.288Z,5.93
2023-02-07T18:07:54.254Z,7.30
2023-02-07T18:10:32.506Z,5.47
2023-02-07T18:12:59.240Z,6.30
2023-02-07T18:15:27.526Z,4.00
2023-02-07T18:17:54.892Z,4.70
2023-02-07T18:20:28.435Z,5.50
2023-02-07T18:22:56.930Z,8.20
2023-02-07T18:25:25.403Z,5.57
2023-02-07T18:27:52.306Z,5.23
2023-02-07T18:30:20.952Z,7.93
2023-02-07T18:32:48.424Z,4.40
2023-02-07T18:35:15.677Z,5.55
2023-02-07T18:37:42.365Z,5.82
2023-02-07T18:40:10.398Z,6.00
2023-02-07T18:42:37.153Z,6.30
2023-02-07T18:45:03.930Z,8.40
2023-02-07T18:47:33.753Z,32.03
2023-02-07T18:50:00.689Z,34.60
2023-02-07T18:52:27.238Z,46.70
2023-02-07T18:54:53.768Z,39.13
2023-02-07T18:57:20.295Z,28.13
2023-02-07T18:59:46.912Z,27.98
2023-02-07T19:02:13.651Z,23.20
2023-02-07T19:04:40.862Z,22.87
2023-02-07T19:07:07.522Z,17.42
2023-02-07T19:09:34.203Z,11.68
2023-02-07T19:12:01.000Z,12.20
2023-02-07T19:14:31.132Z,8.68
2023-02-07T19:16:58.595Z,6.23
2023-02-07T19:19:29.421Z,8.35
2023-02-07T19:21:56.994Z,4.15
2023-02-07T19:24:24.771Z,6.53
2023-02-07T19:26:56.055Z,5.22
2023-02-07T19:29:28.737Z,6.37
2023-02-07T19:32:07.928Z,11.80
2023-02-07T19:34:35.692Z,16.60
2023-02-07T19:37:02.462Z,12.80
2023-02-07T19:39:29.094Z,8.50
2023-02-07T19:41:55.594Z,8.47
2023-02-07T19:44:22.486Z,8.57
2023-02-07T19:46:49.028Z,6.60
2023-02-07T19:49:16.055Z,7.68
2023-02-07T19:51:43.232Z,6.13
2023-02-07T19:54:10.282Z,5.93
2023-02-07T19:56:37.616Z,9.93
2023-02-07T19:59:06.766Z,8.48
2023-02-07T20:01:35.594Z,9.35
2023-02-07T20:04:02.367Z,9.27
2023-02-07T20:06:32.954Z,8.83
2023-02-07T20:09:01.416Z,5.25
2023-02-07T20:11:28.875Z,6.47
2023-02-07T20:14:02.788Z,8.50
2023-02-07T20:16:32.224Z,8.70
2023-02-07T20:18:59.436Z,8.83
2023-02-07T20:21:30.609Z,7.63
2023-02-07T20:23:58.097Z,10.02
2023-02-07T20:26:38.418Z,17.65
2023-02-07T20:29:09.439Z,8.65
2023-02-07T20:31:37.129Z,9.43
2023-02-07T20:34:03.978Z,9.95
2023-02-07T20:36:31.809Z,10.02
2023-02-07T20:38:59.887Z,6.85
2023-02-07T20:41:31.399Z,10.35
2023-02-07T20:44:05.084Z,14.20
2023-02-07T20:46:34.636Z,26.80
2023-02-07T20:49:05.116Z,16.77
2023-02-07T20:51:32.034Z,19.73
2023-02-07T20:54:00.740Z,15.38
2023-02-07T20:56:28.288Z,14.67
2023-02-07T20:58:55.194Z,12.38
2023-02-07T21:01:25.555Z,12.15
2023-02-07T21:03:54.682Z,13.98
2023-02-07T21:06:24.685Z,12.35
2023-02-07T21:08:59.481Z,15.77
2023-02-07T21:11:34.063Z,8.43
2023-02-07T21:14:02.069Z,12.32
2023-02-07T21:16:30.866Z,8.90
2023-02-07T21:18:57.943Z,10.52
2023-02-07T21:21:24.898Z,9.07
2023-02-07T21:23:52.928Z,8.48
2023-02-07T21:26:20.922Z,9.70
2023-02-07T21:28:47.900Z,7.22
2023-02-07T21:31:20.794Z,6.22
2023-02-07T21:33:49.655Z,6.90
2023-02-07T21:36:19.270Z,7.85
2023-02-07T21:38:47.535Z,8.93
2023-02-07T21:41:16.362Z,9.43
2023-02-07T21:43:43.013Z,7.95
2023-02-07T21:46:18.067Z,8.37
2023-02-07T21:48:46.339Z,11.70
2023-02-07T21:51:15.599Z,7.68
2023-02-07T21:53:42.092Z,7.50
2023-02-07T21:56:12.204Z,9.27
2023-02-07T21:58:39.572Z,9.17
2023-02-07T22:01:15.080Z,9.75
2023-02-07T22:03:44.352Z,10.25
2023-02-07T22:06:11.714Z,9.52
2023-02-07T22:08:39.018Z,11.40
2023-02-07T22:11:08.414Z,10.00
2023-02-07T22:13:36.314Z,9.48
2023-02-07T22:16:03.494Z,8.75
2023-02-07T22:18:30.121Z,8.00
2023-02-07T22:21:03.925Z,8.27
2023-02-07T22:23:30.424Z,9.93
2023-02-07T22:25:56.886Z,8.20
2023-02-07T22:28:23.789Z,9.15
2023-02-07T22:30:50.510Z,7.80
2023-02-07T22:33:17.117Z,9.20
2023-02-07T22:35:43.980Z,7.57
2023-02-07T22:38:12.616Z,8.70
2023-02-07T22:40:41.151Z,9.75
2023-02-07T22:43:12.646Z,8.13
2023-02-07T22:45:39.961Z,11.10
2023-02-07T22:48:06.769Z,8.13
2023-02-07T22:50:33.435Z,7.30
2023-02-07T22:52:59.942Z,8.18
2023-02-07T22:55:26.467Z,11.23
2023-02-07T22:57:52.989Z,8.02
2023-02-07T23:00:20.266Z,8.37
2023-02-07T23:02:47.126Z,12.15
2023-02-07T23:05:13.641Z,10.73
2023-02-07T23:07:40.207Z,9.68
2023-02-07T23:10:08.273Z,10.63
2023-02-07T23:12:35.236Z,11.23
2023-02-07T23:15:01.808Z,16.02
2023-02-07T23:17:28.942Z,9.13
2023-02-07T23:19:55.968Z,8.88
2023-02-07T23:22:22.652Z,8.15
2023-02-07T23:24:49.375Z,9.00
2023-02-07T23:27:16.305Z,9.18
2023-02-07T23:29:42.789Z,10.18
2023-02-07T23:32:09.225Z,10.27
2023-02-07T23:34:35.727Z,9.18
2023-02-07T23:37:02.456Z,9.67
2023-02-07T23:39:29.042Z,10.27
2023-02-07T23:41:57.953Z,9.70
2023-02-07T23:44:25.016Z,8.85
2023-02-07T23:46:51.484Z,8.30
2023-02-07T23:49:17.922Z,7.53
2023-02-07T23:51:45.616Z,8.95
2023-02-07T23:54:13.080Z,10.45
2023-02-07T23:56:39.734Z,6.45
2023-02-07T23:59:06.957Z,8.93
